sensor_id;sensor_type;location;lat;lon;timestamp;pressure;altitude;pressure_sealevel;temperature;humidity
49825;BME280;35714;55.708;37.478;2023-02-17T00:02:24;100158.06;;;-3.70;50.23
49825;BME280;35714;55.708;37.478;2023-02-17T00:04:51;100148.97;;;-3.77;49.86
49825;BME280;35714;55.708;37.478;2023-02-17T00:07:17;100163.03;;;-3.76;50.00
49825;BME280;35714;55.708;37.478;2023-02-17T00:09:43;100148.72;;;-3.85;50.53
49825;BME280;35714;55.708;37.478;2023-02-17T00:12:08;100162.94;;;-3.86;50.66
49825;BME280;35714;55.708;37.478;2023-02-17T00:14:34;100165.13;;;-3.91;50.76
49825;BME280;35714;55.708;37.478;2023-02-17T00:17:00;100161.50;;;-3.90;50.75
49825;BME280;35714;55.708;37.478;2023-02-17T00:19:25;100159.59;;;-3.88;50.99
49825;BME280;35714;55.708;37.478;2023-02-17T00:21:56;100160.41;;;-3.88;51.02
49825;BME280;35714;55.708;37.478;2023-02-17T00:24:23;100138.03;;;-3.95;50.93
49825;BME280;35714;55.708;37.478;2023-02-17T00:26:49;100158.59;;;-3.87;50.68
49825;BME280;35714;55.708;37.478;2023-02-17T00:29:15;100160.28;;;-3.86;50.75
49825;BME280;35714;55.708;37.478;2023-02-17T00:31:40;100156.91;;;-3.77;50.80
49825;BME280;35714;55.708;37.478;2023-02-17T00:34:06;100153.88;;;-3.72;50.40
49825;BME280;35714;55.708;37.478;2023-02-17T00:36:32;100154.34;;;-3.67;50.18
49825;BME280;35714;55.708;37.478;2023-02-17T00:38:57;100159.19;;;-3.72;50.27
49825;BME280;35714;55.708;37.478;2023-02-17T00:41:25;100144.63;;;-3.78;50.34
49825;BME280;35714;55.708;37.478;2023-02-17T00:43:51;100144.25;;;-3.73;50.04
49825;BME280;35714;55.708;37.478;2023-02-17T00:46:17;100146.44;;;-3.78;50.13
49825;BME280;35714;55.708;37.478;2023-02-17T00:48:44;100146.44;;;-3.78;50.55
49825;BME280;35714;55.708;37.478;2023-02-17T00:51:10;100137.63;;;-3.79;50.61
49825;BME280;35714;55.708;37.478;2023-02-17T00:53:36;100148.59;;;-3.72;50.82
49825;BME280;35714;55.708;37.478;2023-02-17T00:56:02;100135.03;;;-3.58;50.38
49825;BME280;35714;55.708;37.478;2023-02-17T00:58:28;100140.41;;;-3.48;50.14
49825;BME280;35714;55.708;37.478;2023-02-17T01:00:55;100135.13;;;-3.48;50.16
49825;BME280;35714;55.708;37.478;2023-02-17T01:03:21;100134.75;;;-3.43;49.93
49825;BME280;35714;55.708;37.478;2023-02-17T01:05:48;100138.34;;;-3.45;49.93
49825;BME280;35714;55.708;37.478;2023-02-17T01:08:14;100135.94;;;-3.48;49.96
49825;BME280;35714;55.708;37.478;2023-02-17T01:10:42;100138.28;;;-3.54;50.08
49825;BME280;35714;55.708;37.478;2023-02-17T01:13:08;100142.88;;;-3.56;50.32
49825;BME280;35714;55.708;37.478;2023-02-17T01:15:45;100136.16;;;-3.72;50.33
49825;BME280;35714;55.708;37.478;2023-02-17T01:18:12;100135.22;;;-3.82;50.80
49825;BME280;35714;55.708;37.478;2023-02-17T01:20:39;100133.94;;;-3.88;50.98
49825;BME280;35714;55.708;37.478;2023-02-17T01:23:06;100137.16;;;-3.84;51.21
49825;BME280;35714;55.708;37.478;2023-02-17T01:25:38;100132.56;;;-3.82;50.55
49825;BME280;35714;55.708;37.478;2023-02-17T01:28:04;100132.44;;;-3.81;50.58
49825;BME280;35714;55.708;37.478;2023-02-17T01:30:30;100129.66;;;-3.79;50.58
49825;BME280;35714;55.708;37.478;2023-02-17T01:32:56;100143.41;;;-3.74;50.54
49825;BME280;35714;55.708;37.478;2023-02-17T01:35:22;100134.22;;;-3.70;50.16
49825;BME280;35714;55.708;37.478;2023-02-17T01:37:47;100143.16;;;-3.71;50.10
49825;BME280;35714;55.708;37.478;2023-02-17T01:40:16;100118.63;;;-3.84;49.87
49825;BME280;35714;55.708;37.478;2023-02-17T01:42:42;100131.75;;;-3.83;50.06
49825;BME280;35714;55.708;37.478;2023-02-17T01:50:16;100137.03;;;-3.83;49.94
49825;BME280;35714;55.708;37.478;2023-02-17T01:52:43;100133.44;;;-3.82;50.09
49825;BME280;35714;55.708;37.478;2023-02-17T01:55:14;100139.31;;;-3.78;50.09
49825;BME280;35714;55.708;37.478;2023-02-17T01:57:41;100131.31;;;-3.67;50.38
49825;BME280;35714;55.708;37.478;2023-02-17T02:00:10;100130.31;;;-3.54;50.14
49825;BME280;35714;55.708;37.478;2023-02-17T02:02:41;100136.69;;;-3.46;50.20
49825;BME280;35714;55.708;37.478;2023-02-17T02:05:12;100137.63;;;-3.47;50.05
49825;BME280;35714;55.708;37.478;2023-02-17T02:07:41;100130.31;;;-3.54;49.91
49825;BME280;35714;55.708;37.478;2023-02-17T02:10:11;100129.06;;;-3.71;50.07
49825;BME280;35714;55.708;37.478;2023-02-17T02:12:40;100128.38;;;-3.85;50.69
49825;BME280;35714;55.708;37.478;2023-02-17T02:15:12;100132.03;;;-3.97;51.26
49825;BME280;35714;55.708;37.478;2023-02-17T02:18:12;100131.81;;;-4.05;51.82
49825;BME280;35714;55.708;37.478;2023-02-17T02:34:15;100127.38;;;-4.39;53.34
49825;BME280;35714;55.708;37.478;2023-02-17T02:36:46;100136.06;;;-4.37;53.61
49825;BME280;35714;55.708;37.478;2023-02-17T02:39:19;100132.06;;;-4.31;53.64
49825;BME280;35714;55.708;37.478;2023-02-17T02:41:50;100131.81;;;-4.28;53.76
49825;BME280;35714;55.708;37.478;2023-02-17T02:44:19;100133.63;;;-4.28;53.52
49825;BME280;35714;55.708;37.478;2023-02-17T02:47:01;100116.28;;;-4.32;53.94
49825;BME280;35714;55.708;37.478;2023-02-17T02:49:28;100130.16;;;-4.29;54.08
49825;BME280;35714;55.708;37.478;2023-02-17T02:55:07;100129.75;;;-4.13;54.15
49825;BME280;35714;55.708;37.478;2023-02-17T02:57:55;100139.13;;;-3.97;53.87
49825;BME280;35714;55.708;37.478;2023-02-17T03:03:09;100128.28;;;-3.94;53.98
49825;BME280;35714;55.708;37.478;2023-02-17T03:08:50;100135.25;;;-3.93;53.75
49825;BME280;35714;55.708;37.478;2023-02-17T03:11:24;100126.34;;;-3.92;53.97
49825;BME280;35714;55.708;37.478;2023-02-17T03:14:12;100129.19;;;-3.73;53.14
49825;BME280;35714;55.708;37.478;2023-02-17T03:16:39;100133.44;;;-3.82;53.12
49825;BME280;35714;55.708;37.478;2023-02-17T03:19:07;100123.22;;;-3.86;53.26
49825;BME280;35714;55.708;37.478;2023-02-17T03:24:12;100117.69;;;-3.94;53.33
49825;BME280;35714;55.708;37.478;2023-02-17T03:26:38;100115.41;;;-3.99;53.27
49825;BME280;35714;55.708;37.478;2023-02-17T03:29:04;100117.56;;;-4.04;53.22
49825;BME280;35714;55.708;37.478;2023-02-17T03:31:30;100112.44;;;-4.17;53.15
49825;BME280;35714;55.708;37.478;2023-02-17T03:33:56;100120.41;;;-4.28;53.44
49825;BME280;35714;55.708;37.478;2023-02-17T03:36:22;100118.44;;;-4.26;53.31
49825;BME280;35714;55.708;37.478;2023-02-17T03:38:47;100117.03;;;-4.30;53.42
49825;BME280;35714;55.708;37.478;2023-02-17T03:41:13;100122.34;;;-4.30;53.54
49825;BME280;35714;55.708;37.478;2023-02-17T03:43:39;100120.97;;;-4.25;53.37
49825;BME280;35714;55.708;37.478;2023-02-17T03:46:10;100118.94;;;-4.21;53.45
49825;BME280;35714;55.708;37.478;2023-02-17T03:48:36;100116.06;;;-4.18;53.47
49825;BME280;35714;55.708;37.478;2023-02-17T03:51:19;100116.03;;;-4.07;53.37
49825;BME280;35714;55.708;37.478;2023-02-17T03:53:45;100118.69;;;-4.07;53.04
49825;BME280;35714;55.708;37.478;2023-02-17T03:56:12;100099.66;;;-4.12;53.10
49825;BME280;35714;55.708;37.478;2023-02-17T03:58:38;100114.22;;;-4.06;53.04
49825;BME280;35714;55.708;37.478;2023-02-17T04:01:05;100104.69;;;-4.09;53.43
49825;BME280;35714;55.708;37.478;2023-02-17T04:03:31;100115.16;;;-4.07;53.00
49825;BME280;35714;55.708;37.478;2023-02-17T04:05:57;100104.97;;;-4.23;53.11
49825;BME280;35714;55.708;37.478;2023-02-17T04:08:22;100122.09;;;-4.27;52.99
49825;BME280;35714;55.708;37.478;2023-02-17T04:10:53;100120.63;;;-4.31;53.14
49825;BME280;35714;55.708;37.478;2023-02-17T04:13:19;100115.94;;;-4.39;53.16
49825;BME280;35714;55.708;37.478;2023-02-17T04:15:44;100121.34;;;-4.41;53.44
49825;BME280;35714;55.708;37.478;2023-02-17T04:18:10;100114.66;;;-4.45;53.45
49825;BME280;35714;55.708;37.478;2023-02-17T04:20:35;100123.78;;;-4.49;53.53
49825;BME280;35714;55.708;37.478;2023-02-17T04:23:01;100111.97;;;-4.56;54.04
49825;BME280;35714;55.708;37.478;2023-02-17T04:25:27;100107.03;;;-4.61;53.86
49825;BME280;35714;55.708;37.478;2023-02-17T04:27:52;100110.31;;;-4.57;53.74
49825;BME280;35714;55.708;37.478;2023-02-17T04:30:18;100121.13;;;-4.60;54.20
49825;BME280;35714;55.708;37.478;2023-02-17T04:32:44;100116.09;;;-4.63;54.13
49825;BME280;35714;55.708;37.478;2023-02-17T04:35:09;100124.97;;;-4.64;54.23
49825;BME280;35714;55.708;37.478;2023-02-17T04:37:35;100124.97;;;-4.64;54.46
49825;BME280;35714;55.708;37.478;2023-02-17T04:40:00;100129.69;;;-4.68;54.41
49825;BME280;35714;55.708;37.478;2023-02-17T04:42:26;100130.97;;;-4.74;54.82
49825;BME280;35714;55.708;37.478;2023-02-17T04:44:52;100128.69;;;-4.78;55.20
49825;BME280;35714;55.708;37.478;2023-02-17T04:47:17;100125.91;;;-4.88;55.23
49825;BME280;35714;55.708;37.478;2023-02-17T04:49:43;100135.56;;;-4.87;55.80
49825;BME280;35714;55.708;37.478;2023-02-17T04:52:09;100132.16;;;-4.89;55.81
49825;BME280;35714;55.708;37.478;2023-02-17T04:54:34;100132.16;;;-4.89;56.21
49825;BME280;35714;55.708;37.478;2023-02-17T04:57:00;100134.09;;;-4.91;56.49
49825;BME280;35714;55.708;37.478;2023-02-17T04:59:26;100134.09;;;-4.91;56.48
49825;BME280;35714;55.708;37.478;2023-02-17T05:01:51;100130.38;;;-4.88;56.58
49825;BME280;35714;55.708;37.478;2023-02-17T05:04:17;100131.44;;;-4.80;56.60
49825;BME280;35714;55.708;37.478;2023-02-17T05:06:43;100136.28;;;-4.74;56.82
49825;BME280;35714;55.708;37.478;2023-02-17T05:09:08;100125.94;;;-4.77;56.61
49825;BME280;35714;55.708;37.478;2023-02-17T05:11:34;100129.31;;;-4.75;56.72
49825;BME280;35714;55.708;37.478;2023-02-17T05:13:59;100126.91;;;-4.66;56.51
49825;BME280;35714;55.708;37.478;2023-02-17T05:16:25;100134.38;;;-4.60;56.53
49825;BME280;35714;55.708;37.478;2023-02-17T05:18:50;100128.09;;;-4.59;56.75
49825;BME280;35714;55.708;37.478;2023-02-17T05:21:16;100119.69;;;-4.64;57.12
49825;BME280;35714;55.708;37.478;2023-02-17T05:23:42;100128.56;;;-4.65;57.34
49825;BME280;35714;55.708;37.478;2023-02-17T05:26:08;100127.63;;;-4.53;57.39
49825;BME280;35714;55.708;37.478;2023-02-17T05:28:35;100133.88;;;-4.43;56.95
49825;BME280;35714;55.708;37.478;2023-02-17T05:31:01;100122.56;;;-4.33;56.84
49825;BME280;35714;55.708;37.478;2023-02-17T05:33:27;100135.56;;;-4.19;56.34
49825;BME280;35714;55.708;37.478;2023-02-17T05:35:52;100122.78;;;-4.14;56.23
49825;BME280;35714;55.708;37.478;2023-02-17T05:38:18;100138.63;;;-3.91;55.88
49825;BME280;35714;55.708;37.478;2023-02-17T05:40:44;100123.41;;;-3.78;55.66
49825;BME280;35714;55.708;37.478;2023-02-17T05:43:10;100136.56;;;-3.55;55.54
49825;BME280;35714;55.708;37.478;2023-02-17T05:45:35;100129.50;;;-3.34;54.94
49825;BME280;35714;55.708;37.478;2023-02-17T05:48:01;100127.84;;;-3.14;53.78
49825;BME280;35714;55.708;37.478;2023-02-17T05:50:27;100140.66;;;-2.98;53.74
49825;BME280;35714;55.708;37.478;2023-02-17T05:52:54;100144.22;;;-2.87;53.69
49825;BME280;35714;55.708;37.478;2023-02-17T05:55:19;100141.47;;;-2.76;53.61
49825;BME280;35714;55.708;37.478;2023-02-17T05:57:46;100152.72;;;-2.63;53.07
49825;BME280;35714;55.708;37.478;2023-02-17T06:00:12;100148.56;;;-2.56;52.90
49825;BME280;35714;55.708;37.478;2023-02-17T06:02:38;100145.56;;;-2.41;52.88
49825;BME280;35714;55.708;37.478;2023-02-17T06:05:04;100154.88;;;-2.16;52.86
49825;BME280;35714;55.708;37.478;2023-02-17T06:07:30;100148.94;;;-1.89;52.60
49825;BME280;35714;55.708;37.478;2023-02-17T06:09:55;100145.19;;;-1.76;51.82
49825;BME280;35714;55.708;37.478;2023-02-17T06:12:21;100158.50;;;-1.67;51.64
49825;BME280;35714;55.708;37.478;2023-02-17T06:14:46;100162.56;;;-1.63;51.18
49825;BME280;35714;55.708;37.478;2023-02-17T06:17:12;100145.50;;;-1.70;50.84
49825;BME280;35714;55.708;37.478;2023-02-17T06:19:38;100159.34;;;-1.76;50.42
49825;BME280;35714;55.708;37.478;2023-02-17T06:22:03;100155.34;;;-2.01;50.72
49825;BME280;35714;55.708;37.478;2023-02-17T06:24:29;100158.91;;;-2.22;51.21
49825;BME280;35714;55.708;37.478;2023-02-17T06:26:55;100155.91;;;-2.38;51.43
49825;BME280;35714;55.708;37.478;2023-02-17T06:29:20;100163.16;;;-2.50;52.05
49825;BME280;35714;55.708;37.478;2023-02-17T06:31:46;100161.19;;;-2.48;52.25
49825;BME280;35714;55.708;37.478;2023-02-17T06:34:12;100149.03;;;-2.41;51.98
49825;BME280;35714;55.708;37.478;2023-02-17T06:36:37;100149.91;;;-2.40;52.36
49825;BME280;35714;55.708;37.478;2023-02-17T06:39:03;100161.13;;;-2.27;51.63
49825;BME280;35714;55.708;37.478;2023-02-17T06:41:28;100155.66;;;-2.35;52.36
49825;BME280;35714;55.708;37.478;2023-02-17T06:43:54;100155.66;;;-2.35;52.10
49825;BME280;35714;55.708;37.478;2023-02-17T06:46:20;100152.28;;;-2.37;52.05
49825;BME280;35714;55.708;37.478;2023-02-17T06:48:46;100160.41;;;-2.39;51.66
49825;BME280;35714;55.708;37.478;2023-02-17T06:51:12;100153.97;;;-2.36;51.46
49825;BME280;35714;55.708;37.478;2023-02-17T06:53:38;100149.13;;;-2.52;51.98
49825;BME280;35714;55.708;37.478;2023-02-17T06:56:04;100155.84;;;-2.58;52.17
49825;BME280;35714;55.708;37.478;2023-02-17T06:58:29;100158.03;;;-2.63;52.33
49825;BME280;35714;55.708;37.478;2023-02-17T07:00:57;100155.75;;;-2.67;52.30
49825;BME280;35714;55.708;37.478;2023-02-17T07:03:23;100152.97;;;-2.66;52.46
49825;BME280;35714;55.708;37.478;2023-02-17T07:05:48;100143.78;;;-2.62;52.17
49825;BME280;35714;55.708;37.478;2023-02-17T07:08:14;100142.16;;;-2.53;52.38
49825;BME280;35714;55.708;37.478;2023-02-17T07:10:39;100131.28;;;-2.50;52.50
49825;BME280;35714;55.708;37.478;2023-02-17T07:13:05;100143.97;;;-2.23;52.15
49825;BME280;35714;55.708;37.478;2023-02-17T07:15:31;100143.41;;;-2.16;51.68
49825;BME280;35714;55.708;37.478;2023-02-17T07:17:56;100134.72;;;-2.19;51.42
49825;BME280;35714;55.708;37.478;2023-02-17T07:20:22;100145.09;;;-2.15;51.93
49825;BME280;35714;55.708;37.478;2023-02-17T07:22:48;100137.31;;;-2.07;51.54
49825;BME280;35714;55.708;37.478;2023-02-17T07:25:13;100138.69;;;-2.03;51.69
49825;BME280;35714;55.708;37.478;2023-02-17T07:27:39;100142.22;;;-1.93;50.95
49825;BME280;35714;55.708;37.478;2023-02-17T07:30:05;100140.53;;;-1.94;51.29
49825;BME280;35714;55.708;37.478;2023-02-17T07:32:31;100142.66;;;-1.88;51.47
49825;BME280;35714;55.708;37.478;2023-02-17T07:34:58;100141.13;;;-1.80;50.99
49825;BME280;35714;55.708;37.478;2023-02-17T07:37:24;100142.94;;;-1.81;50.14
49825;BME280;35714;55.708;37.478;2023-02-17T07:39:49;100141.09;;;-1.90;50.20
49825;BME280;35714;55.708;37.478;2023-02-17T07:42:16;100137.31;;;-2.07;50.81
49825;BME280;35714;55.708;37.478;2023-02-17T07:44:45;100145.53;;;-2.10;50.89
49825;BME280;35714;55.708;37.478;2023-02-17T07:47:10;100140.03;;;-2.19;51.03
49825;BME280;35714;55.708;37.478;2023-02-17T07:49:36;100142.94;;;-2.31;51.55
49825;BME280;35714;55.708;37.478;2023-02-17T07:52:02;100146.63;;;-2.23;51.65
49825;BME280;35714;55.708;37.478;2023-02-17T07:54:27;100137.75;;;-2.33;51.24
49825;BME280;35714;55.708;37.478;2023-02-17T07:56:53;100140.25;;;-2.41;51.85
49825;BME280;35714;55.708;37.478;2023-02-17T07:59:19;100133.56;;;-2.36;52.06
49825;BME280;35714;55.708;37.478;2023-02-17T08:01:44;100137.66;;;-2.22;51.52
49825;BME280;35714;55.708;37.478;2023-02-17T08:04:10;100140.88;;;-2.28;51.52
49825;BME280;35714;55.708;37.478;2023-02-17T08:06:37;100119.00;;;-2.41;52.10
49825;BME280;35714;55.708;37.478;2023-02-17T08:09:04;100129.72;;;-2.52;51.95
49825;BME280;35714;55.708;37.478;2023-02-17T08:11:48;100136.59;;;-2.50;52.68
49825;BME280;35714;55.708;37.478;2023-02-17T08:14:32;100136.38;;;-2.37;52.24
49825;BME280;35714;55.708;37.478;2023-02-17T08:16:58;100124.94;;;-2.28;52.30
49825;BME280;35714;55.708;37.478;2023-02-17T08:19:24;100127.75;;;-2.20;52.68
49825;BME280;35714;55.708;37.478;2023-02-17T08:21:51;100121.94;;;-1.94;52.42
49825;BME280;35714;55.708;37.478;2023-02-17T08:24:17;100121.44;;;-1.68;51.78
49825;BME280;35714;55.708;37.478;2023-02-17T08:26:49;100124.09;;;-1.49;50.60
49825;BME280;35714;55.708;37.478;2023-02-17T08:29:15;100125.34;;;-1.53;50.30
49825;BME280;35714;55.708;37.478;2023-02-17T08:31:41;100125.06;;;-1.50;49.84
49825;BME280;35714;55.708;37.478;2023-02-17T08:34:08;100127.16;;;-1.43;50.07
49825;BME280;35714;55.708;37.478;2023-02-17T08:36:35;100121.97;;;-1.16;50.16
49825;BME280;35714;55.708;37.478;2023-02-17T08:39:08;100120.81;;;-0.94;48.93
49825;BME280;35714;55.708;37.478;2023-02-17T08:41:36;100126.00;;;-0.92;48.42
49825;BME280;35714;55.708;37.478;2023-02-17T08:44:06;100123.63;;;-0.95;47.90
49825;BME280;35714;55.708;37.478;2023-02-17T08:46:34;100120.84;;;-1.03;48.06
49825;BME280;35714;55.708;37.478;2023-02-17T08:49:00;100120.84;;;-1.03;48.69
49825;BME280;35714;55.708;37.478;2023-02-17T08:51:25;100118.19;;;-1.03;48.18
49825;BME280;35714;55.708;37.478;2023-02-17T08:53:53;100114.41;;;-1.11;48.22
49825;BME280;35714;55.708;37.478;2023-02-17T08:56:20;100116.38;;;-1.13;48.21
49825;BME280;35714;55.708;37.478;2023-02-17T08:58:46;100120.16;;;-1.25;48.05
49825;BME280;35714;55.708;37.478;2023-02-17T09:01:12;100123.94;;;-1.37;48.67
49825;BME280;35714;55.708;37.478;2023-02-17T09:03:38;100126.59;;;-1.37;48.38
49825;BME280;35714;55.708;37.478;2023-02-17T09:06:05;100122.56;;;-1.41;48.54
49825;BME280;35714;55.708;37.478;2023-02-17T09:08:31;100124.09;;;-1.49;48.56
49825;BME280;35714;55.708;37.478;2023-02-17T09:10:57;100126.31;;;-1.64;49.23
49825;BME280;35714;55.708;37.478;2023-02-17T09:13:23;100129.97;;;-1.74;49.09
49825;BME280;35714;55.708;37.478;2023-02-17T09:15:49;100129.63;;;-1.81;49.51
49825;BME280;35714;55.708;37.478;2023-02-17T09:18:19;100128.25;;;-1.75;49.35
49825;BME280;35714;55.708;37.478;2023-02-17T09:20:45;100132.63;;;-1.74;49.44
49825;BME280;35714;55.708;37.478;2023-02-17T09:23:11;100124.47;;;-1.83;49.72
49825;BME280;35714;55.708;37.478;2023-02-17T09:25:36;100123.63;;;-1.83;50.00
49825;BME280;35714;55.708;37.478;2023-02-17T09:28:02;100124.09;;;-1.68;50.21
49825;BME280;35714;55.708;37.478;2023-02-17T09:30:28;100108.41;;;-1.52;49.83
49825;BME280;35714;55.708;37.478;2023-02-17T09:32:54;100110.91;;;-1.31;49.63
49825;BME280;35714;55.708;37.478;2023-02-17T09:35:20;100117.19;;;-1.12;49.37
49825;BME280;35714;55.708;37.478;2023-02-17T09:37:45;100117.03;;;-1.01;48.71
49825;BME280;35714;55.708;37.478;2023-02-17T09:40:17;100107.09;;;-0.99;47.90
49825;BME280;35714;55.708;37.478;2023-02-17T09:42:44;100102.78;;;-1.10;48.25
49825;BME280;35714;55.708;37.478;2023-02-17T09:45:14;100088.22;;;-1.25;48.67
49825;BME280;35714;55.708;37.478;2023-02-17T09:47:46;100100.13;;;-1.29;48.82
49825;BME280;35714;55.708;37.478;2023-02-17T09:50:26;100104.06;;;-1.23;48.82
49825;BME280;35714;55.708;37.478;2023-02-17T09:52:57;100104.63;;;-1.39;49.06
49825;BME280;35714;55.708;37.478;2023-02-17T09:55:30;100098.91;;;-1.44;49.56
49825;BME280;35714;55.708;37.478;2023-02-17T10:00:38;100098.75;;;-1.53;49.81
49825;BME280;35714;55.708;37.478;2023-02-17T10:05:38;100090.91;;;-1.44;49.74
49825;BME280;35714;55.708;37.478;2023-02-17T10:08:13;100081.09;;;-1.34;49.85
49825;BME280;35714;55.708;37.478;2023-02-17T10:13:09;100076.91;;;-1.47;49.88
49825;BME280;35714;55.708;37.478;2023-02-17T10:15:40;100076.63;;;-1.43;49.70
49825;BME280;35714;55.708;37.478;2023-02-17T10:18:18;100079.69;;;-1.38;49.90
49825;BME280;35714;55.708;37.478;2023-02-17T10:20:57;100078.59;;;-1.46;49.54
49825;BME280;35714;55.708;37.478;2023-02-17T10:23:26;100075.78;;;-1.44;49.85
49825;BME280;35714;55.708;37.478;2023-02-17T10:28:52;100076.63;;;-1.43;49.52
49825;BME280;35714;55.708;37.478;2023-02-17T10:31:45;100072.31;;;-1.44;49.48
49825;BME280;35714;55.708;37.478;2023-02-17T10:34:33;100060.94;;;-1.37;49.76
49825;BME280;35714;55.708;37.478;2023-02-17T10:39:52;100054.75;;;-1.18;49.79
49825;BME280;35714;55.708;37.478;2023-02-17T10:42:32;100055.28;;;-1.04;49.41
49825;BME280;35714;55.708;37.478;2023-02-17T10:45:02;100046.34;;;-1.13;49.06
49825;BME280;35714;55.708;37.478;2023-02-17T10:47:30;100050.53;;;-1.11;49.13
49825;BME280;35714;55.708;37.478;2023-02-17T10:49:57;100050.81;;;-1.14;49.05
49825;BME280;35714;55.708;37.478;2023-02-17T10:52:36;100039.63;;;-1.17;49.29
49825;BME280;35714;55.708;37.478;2023-02-17T10:57:52;100046.47;;;-1.05;49.43
49825;BME280;35714;55.708;37.478;2023-02-17T11:00:19;100046.31;;;-1.03;48.61
49825;BME280;35714;55.708;37.478;2023-02-17T11:02:47;100043.38;;;-1.10;49.06
49825;BME280;35714;55.708;37.478;2023-02-17T11:05:27;100041.28;;;-1.06;49.18
49825;BME280;35714;55.708;37.478;2023-02-17T11:07:55;100036.34;;;-1.01;48.58
49825;BME280;35714;55.708;37.478;2023-02-17T11:10:34;100021.94;;;-1.09;48.39
49825;BME280;35714;55.708;37.478;2023-02-17T11:13:00;100041.75;;;-1.21;48.17
49825;BME280;35714;55.708;37.478;2023-02-17T11:15:35;100033.78;;;-1.40;48.69
49825;BME280;35714;55.708;37.478;2023-02-17T11:18:20;100031.53;;;-1.35;48.79
49825;BME280;35714;55.708;37.478;2023-02-17T11:20:49;100035.19;;;-1.36;48.83
49825;BME280;35714;55.708;37.478;2023-02-17T11:25:41;100038.94;;;-1.19;48.68
49825;BME280;35714;55.708;37.478;2023-02-17T11:28:12;100026.06;;;-1.24;48.49
49825;BME280;35714;55.708;37.478;2023-02-17T11:30:55;100019.38;;;-1.38;48.54
49825;BME280;35714;55.708;37.478;2023-02-17T11:33:31;100018.94;;;-1.33;49.19
49825;BME280;35714;55.708;37.478;2023-02-17T11:35:57;100020.88;;;-1.35;49.08
49825;BME280;35714;55.708;37.478;2023-02-17T11:38:26;100012.22;;;-1.37;49.49
49825;BME280;35714;55.708;37.478;2023-02-17T11:43:21;100011.34;;;-1.28;49.29
49825;BME280;35714;55.708;37.478;2023-02-17T11:51:03;100010.78;;;-1.22;49.11
49825;BME280;35714;55.708;37.478;2023-02-17T11:54:00;100007.00;;;-1.29;49.49
49825;BME280;35714;55.708;37.478;2023-02-17T11:56:34;100001.84;;;-1.21;49.45
49825;BME280;35714;55.708;37.478;2023-02-17T11:59:17;100002.63;;;-1.11;49.44
49825;BME280;35714;55.708;37.478;2023-02-17T12:04:32;100002.56;;;-0.91;48.60
49825;BME280;35714;55.708;37.478;2023-02-17T12:07:27;99998.13;;;-1.00;48.75
49825;BME280;35714;55.708;37.478;2023-02-17T12:10:20;99989.41;;;-1.02;48.86
49825;BME280;35714;55.708;37.478;2023-02-17T12:18:39;99980.94;;;-1.16;49.11
49825;BME280;35714;55.708;37.478;2023-02-17T12:35:26;99985.88;;;-1.21;49.68
49825;BME280;35714;55.708;37.478;2023-02-17T12:38:01;99990.63;;;-1.15;49.58
49825;BME280;35714;55.708;37.478;2023-02-17T12:40:36;99987.13;;;-1.25;50.12
49825;BME280;35714;55.708;37.478;2023-02-17T12:43:26;99994.81;;;-1.22;49.73
49825;BME280;35714;55.708;37.478;2023-02-17T12:45:55;99995.97;;;-1.34;50.18
49825;BME280;35714;55.708;37.478;2023-02-17T12:53:55;99982.38;;;-1.31;49.76
49825;BME280;35714;55.708;37.478;2023-02-17T12:58:54;99984.81;;;-1.48;49.90
49825;BME280;35714;55.708;37.478;2023-02-17T13:01:26;99970.56;;;-1.66;50.30
49825;BME280;35714;55.708;37.478;2023-02-17T13:03:58;99978.53;;;-1.66;50.47
49825;BME280;35714;55.708;37.478;2023-02-17T13:06:39;99980.63;;;-1.60;50.82
49825;BME280;35714;55.708;37.478;2023-02-17T13:09:35;99960.75;;;-1.56;50.14
49825;BME280;35714;55.708;37.478;2023-02-17T13:15:05;99974.75;;;-1.54;49.89
49825;BME280;35714;55.708;37.478;2023-02-17T13:17:37;99972.53;;;-1.68;50.65
49825;BME280;35714;55.708;37.478;2023-02-17T13:22:35;99975.88;;;-1.56;50.64
49825;BME280;35714;55.708;37.478;2023-02-17T13:25:01;99976.69;;;-1.56;50.70
49825;BME280;35714;55.708;37.478;2023-02-17T13:32:37;99959.09;;;-1.67;50.73
49825;BME280;35714;55.708;37.478;2023-02-17T13:35:28;99968.06;;;-1.68;51.08
49825;BME280;35714;55.708;37.478;2023-02-17T13:37:54;99960.22;;;-1.69;50.92
49825;BME280;35714;55.708;37.478;2023-02-17T13:42:51;99956.81;;;-1.52;50.35
49825;BME280;35714;55.708;37.478;2023-02-17T13:45:33;99958.78;;;-1.54;50.07
49825;BME280;35714;55.708;37.478;2023-02-17T13:48:27;99957.28;;;-1.66;50.32
49825;BME280;35714;55.708;37.478;2023-02-17T13:50:58;99949.75;;;-1.80;50.57
49825;BME280;35714;55.708;37.478;2023-02-17T13:53:35;99947.53;;;-1.95;50.96
49825;BME280;35714;55.708;37.478;2023-02-17T13:56:10;99946.53;;;-1.94;51.11
49825;BME280;35714;55.708;37.478;2023-02-17T13:58:38;99952.13;;;-1.87;51.14
49825;BME280;35714;55.708;37.478;2023-02-17T14:01:11;99949.88;;;-1.92;51.33
49825;BME280;35714;55.708;37.478;2023-02-17T14:03:47;99935.38;;;-2.07;51.58
49825;BME280;35714;55.708;37.478;2023-02-17T14:06:35;99944.03;;;-2.05;51.78
49825;BME280;35714;55.708;37.478;2023-02-17T14:09:31;99939.97;;;-2.09;51.99
49825;BME280;35714;55.708;37.478;2023-02-17T14:11:59;99931.16;;;-2.20;51.74
49825;BME280;35714;55.708;37.478;2023-02-17T14:14:31;99935.66;;;-2.10;51.59
49825;BME280;35714;55.708;37.478;2023-02-17T14:17:01;99943.19;;;-2.25;51.61
49825;BME280;35714;55.708;37.478;2023-02-17T14:19:27;99941.66;;;-2.28;52.17
49825;BME280;35714;55.708;37.478;2023-02-17T14:22:04;99936.19;;;-2.36;52.35
49825;BME280;35714;55.708;37.478;2023-02-17T14:24:35;99939.28;;;-2.31;52.52
49825;BME280;35714;55.708;37.478;2023-02-17T14:27:06;99935.34;;;-2.37;52.42
49825;BME280;35714;55.708;37.478;2023-02-17T14:29:39;99937.88;;;-2.35;52.60
49825;BME280;35714;55.708;37.478;2023-02-17T14:32:06;99949.63;;;-2.28;52.32